createdAt,value
2019-03-15T00:00:01.473Z,8.10
2019-03-15T00:02:44.090Z,8.10
2019-03-15T00:05:27.020Z,8.10
2019-03-15T00:08:09.312Z,8.00
2019-03-15T00:13:34.543Z,8.00
2019-03-15T00:16:17.974Z,7.90
2019-03-15T00:19:01.820Z,7.80
2019-03-15T00:21:44.437Z,7.80
2019-03-15T00:24:27.044Z,7.80
2019-03-15T00:27:10.476Z,7.80
2019-03-15T00:29:54.318Z,7.80
2019-03-15T00:35:21.186Z,7.60
2019-03-15T00:38:05.026Z,7.60
2019-03-15T00:40:48.463Z,7.60
2019-03-15T00:43:32.303Z,7.60
2019-03-15T00:46:16.965Z,7.60
2019-03-15T00:49:00.398Z,7.50
2019-03-15T00:51:44.247Z,7.50
2019-03-15T00:54:28.909Z,7.50
2019-03-15T00:57:11.515Z,7.50
2019-03-15T00:59:54.950Z,7.50
2019-03-15T01:02:38.790Z,7.40
2019-03-15T01:05:21.406Z,7.40
2019-03-15T01:08:04.019Z,7.40
2019-03-15T01:10:44.653Z,7.40
2019-03-15T01:13:30.887Z,7.40
2019-03-15T01:16:14.730Z,7.40
2019-03-15T01:22:08.218Z,7.40
2019-03-15T01:24:50.833Z,7.40
2019-03-15T01:27:35.492Z,7.40
2019-03-15T01:30:20.163Z,7.50
2019-03-15T01:33:02.771Z,7.50
2019-03-15T01:47:43.524Z,7.30
2019-03-15T02:19:55.673Z,7.20
2019-03-15T02:23:09.384Z,7.20
2019-03-15T03:00:20.931Z,7.20
2019-03-15T03:18:10.517Z,7.30
2019-03-15T03:35:55.782Z,7.30
2019-03-15T03:41:38.455Z,7.30
2019-03-15T04:10:22.247Z,7.30
2019-03-15T04:16:19.837Z,7.30
2019-03-15T05:07:45.398Z,7.20
2019-03-15T05:37:44.567Z,7.10
2019-03-15T05:48:51.025Z,7.10
2019-03-15T05:57:21.603Z,7.20
2019-03-15T06:00:07.488Z,7.20
2019-03-15T06:02:57.112Z,7.20
2019-03-15T06:08:54.019Z,7.20
2019-03-15T06:14:26.030Z,7.20
2019-03-15T06:17:13.549Z,7.20
2019-03-15T06:19:56.496Z,7.20
2019-03-15T06:22:39.603Z,7.20
2019-03-15T06:25:29.588Z,7.20
2019-03-15T06:30:54.811Z,7.20
2019-03-15T06:33:37.621Z,7.20
2019-03-15T06:36:21.241Z,7.30
2019-03-15T06:39:05.873Z,7.30
2019-03-15T06:41:51.006Z,7.30
2019-03-15T06:44:37.566Z,7.30
2019-03-15T06:47:23.621Z,7.40
2019-03-15T06:52:50.468Z,7.40
2019-03-15T06:55:35.129Z,7.40
2019-03-15T06:58:18.971Z,7.50
2019-03-15T07:01:03.629Z,7.60
2019-03-15T07:03:46.246Z,7.60
2019-03-15T07:06:28.863Z,7.60
2019-03-15T07:09:11.470Z,7.70
2019-03-15T07:14:35.472Z,7.80
2019-03-15T07:17:19.317Z,7.90
2019-03-15T07:20:01.926Z,7.90
2019-03-15T07:25:27.162Z,8.10
2019-03-15T07:28:11.822Z,8.20
2019-03-15T07:30:54.430Z,8.20
2019-03-15T07:33:37.044Z,8.30
2019-03-15T07:36:19.658Z,8.40
2019-03-15T07:39:02.279Z,8.50
2019-03-15T07:41:44.886Z,8.50
2019-03-15T07:44:27.507Z,8.60
2019-03-15T07:47:10.128Z,8.70
2019-03-15T07:49:52.723Z,8.90
2019-03-15T07:52:36.537Z,8.90
2019-03-15T07:55:19.997Z,9.10
2019-03-15T08:10:28.921Z,9.80
2019-03-15T08:15:54.147Z,10.10
2019-03-15T08:18:36.763Z,10.30
2019-03-15T08:21:22.544Z,10.40
2019-03-15T08:24:03.222Z,10.40
2019-03-15T08:26:46.647Z,10.50
2019-03-15T08:29:30.456Z,10.60
2019-03-15T08:32:13.516Z,10.70
2019-03-15T08:34:59.407Z,10.80
2019-03-15T08:37:42.850Z,10.80
2019-03-15T08:40:26.685Z,10.90
2019-03-15T08:43:09.295Z,11.00
2019-03-15T08:45:51.903Z,11.10
2019-03-15T08:48:34.525Z,11.10
2019-03-15T08:51:17.135Z,11.20
2019-03-15T08:53:59.749Z,11.20
2019-03-15T08:56:42.364Z,11.20
2019-03-15T08:59:24.980Z,11.30
2019-03-15T09:02:07.588Z,11.30
2019-03-15T09:04:50.560Z,11.40
2019-03-15T09:07:32.816Z,11.50
2019-03-15T09:10:22.621Z,11.50
2019-03-15T09:13:00.096Z,11.50
2019-03-15T09:15:42.706Z,11.50
2019-03-15T09:18:25.316Z,11.50
2019-03-15T09:21:09.570Z,11.60
2019-03-15T09:23:53.411Z,11.70
2019-03-15T09:26:38.074Z,11.80
2019-03-15T09:29:22.765Z,11.90
2019-03-15T09:32:09.295Z,11.90
2019-03-15T09:34:52.059Z,11.90
2019-03-15T09:37:34.669Z,12.00
2019-03-15T09:40:18.106Z,12.00
2019-03-15T09:43:01.947Z,12.00
2019-03-15T09:45:46.203Z,12.00
2019-03-15T09:48:30.388Z,12.00
2019-03-15T09:51:14.708Z,12.10
2019-03-15T09:53:57.322Z,12.20
2019-03-15T09:56:40.749Z,12.20
2019-03-15T09:59:24.594Z,12.20
2019-03-15T10:05:20.131Z,12.20
2019-03-15T10:08:02.746Z,12.10
2019-03-15T10:10:48.672Z,12.20
2019-03-15T10:13:30.019Z,12.20
2019-03-15T10:16:12.632Z,12.30
2019-03-15T10:18:55.247Z,12.30
2019-03-15T10:21:37.862Z,12.40
2019-03-15T10:24:20.478Z,12.40
2019-03-15T10:27:03.089Z,12.40
2019-03-15T10:29:45.701Z,12.40
2019-03-15T10:32:30.361Z,12.40
2019-03-15T10:37:58.459Z,12.40
2019-03-15T10:46:27.601Z,12.60
2019-03-15T10:49:12.259Z,12.60
2019-03-15T10:54:42.403Z,12.70
2019-03-15T10:57:29.387Z,12.70
2019-03-15T11:00:20.746Z,12.80
2019-03-15T11:05:46.789Z,12.80
2019-03-15T11:08:32.195Z,12.80
2019-03-15T11:11:25.122Z,12.70
2019-03-15T11:14:08.967Z,12.70
2019-03-15T11:19:34.489Z,12.70
2019-03-15T11:25:02.936Z,12.70
2019-03-15T11:27:48.489Z,12.60
2019-03-15T11:30:34.018Z,12.60
2019-03-15T11:33:26.513Z,12.60
2019-03-15T11:36:13.220Z,12.60
2019-03-15T11:42:18.593Z,12.60
2019-03-15T11:50:55.140Z,12.80
2019-03-15T11:53:43.841Z,12.80
2019-03-15T11:59:16.870Z,12.80
2019-03-15T12:02:04.186Z,12.90
2019-03-15T12:04:50.419Z,12.90
2019-03-15T12:10:17.570Z,12.90
2019-03-15T12:13:03.049Z,12.90
2019-03-15T12:15:45.664Z,12.90
2019-03-15T12:21:10.889Z,13.00
2019-03-15T12:23:53.499Z,13.00
2019-03-15T12:27:03.810Z,13.10
2019-03-15T12:35:10.398Z,13.20
2019-03-15T12:40:54.814Z,13.30
2019-03-15T12:43:42.184Z,13.30
2019-03-15T12:46:28.073Z,13.40
2019-03-15T12:49:13.552Z,13.30
2019-03-15T12:52:20.361Z,13.30
2019-03-15T12:54:49.846Z,13.40
2019-03-15T12:57:32.447Z,13.30
2019-03-15T13:00:18.755Z,13.30
2019-03-15T13:03:27.323Z,13.40
2019-03-15T13:05:53.654Z,13.50
2019-03-15T13:08:36.015Z,13.50
2019-03-15T13:11:18.633Z,13.60
2019-03-15T13:14:06.995Z,13.50
2019-03-15T13:16:52.385Z,13.50
2019-03-15T13:19:40.323Z,13.50
2019-03-15T13:25:09.715Z,13.50
2019-03-15T13:27:56.448Z,13.40
2019-03-15T13:30:42.565Z,13.30
2019-03-15T13:33:52.307Z,13.30
2019-03-15T13:36:17.389Z,13.30
2019-03-15T13:39:22.629Z,13.30
2019-03-15T13:42:12.923Z,13.30
2019-03-15T13:47:29.132Z,13.40
2019-03-15T13:52:56.413Z,13.40
2019-03-15T13:55:40.218Z,13.40
2019-03-15T13:58:28.600Z,13.40
2019-03-15T14:01:14.080Z,13.30
2019-03-15T14:03:56.142Z,13.30
2019-03-15T14:09:27.628Z,13.40
2019-03-15T14:12:15.076Z,13.30
2019-03-15T14:15:03.565Z,13.30
2019-03-15T14:17:51.152Z,13.30
2019-03-15T14:20:33.672Z,13.30
2019-03-15T14:23:19.810Z,13.30
2019-03-15T14:26:21.509Z,13.20
2019-03-15T14:28:54.628Z,13.20
2019-03-15T14:34:49.710Z,13.10
2019-03-15T14:37:54.421Z,13.00
2019-03-15T14:40:23.697Z,13.00
2019-03-15T14:43:13.157Z,12.90
2019-03-15T14:48:49.442Z,12.90
2019-03-15T14:54:18.061Z,12.70
2019-03-15T14:57:07.524Z,12.60
2019-03-15T14:59:52.535Z,12.50
2019-03-15T15:05:22.333Z,12.30
2019-03-15T15:08:09.045Z,12.30
2019-03-15T15:10:53.708Z,12.20
2019-03-15T15:16:49.242Z,12.20
2019-03-15T15:19:32.119Z,12.10
2019-03-15T15:22:18.159Z,12.10
2019-03-15T15:25:24.579Z,12.10
2019-03-15T15:28:03.767Z,12.10
2019-03-15T15:30:47.711Z,12.10
2019-03-15T15:36:22.759Z,12.00
2019-03-15T15:39:07.424Z,12.10
2019-03-15T15:44:32.920Z,12.00
2019-03-15T15:47:19.367Z,11.90
2019-03-15T15:50:04.021Z,11.90
2019-03-15T15:52:47.454Z,11.80
2019-03-15T15:55:33.683Z,11.80
2019-03-15T15:58:18.165Z,11.90
2019-03-15T16:00:59.689Z,11.90
2019-03-15T16:03:47.341Z,11.90
2019-03-15T16:06:30.765Z,11.90
2019-03-15T16:09:15.019Z,11.80
2019-03-15T16:11:59.234Z,11.90
2019-03-15T16:14:43.534Z,11.80
2019-03-15T16:17:26.460Z,11.90
2019-03-15T16:22:59.759Z,11.80
2019-03-15T16:25:42.168Z,11.80
2019-03-15T16:28:48.952Z,11.80
2019-03-15T16:31:18.452Z,11.80
2019-03-15T16:34:03.134Z,11.80
2019-03-15T16:36:50.653Z,11.80
2019-03-15T16:39:57.958Z,11.80
2019-03-15T16:48:04.838Z,11.80
2019-03-15T16:50:51.853Z,11.80
2019-03-15T16:53:36.639Z,11.80
2019-03-15T16:56:39.769Z,11.90
2019-03-15T16:59:12.291Z,11.80
2019-03-15T17:10:28.788Z,11.60
2019-03-15T17:13:15.495Z,11.60
2019-03-15T17:18:43.581Z,11.60
2019-03-15T17:24:10.859Z,11.50
2019-03-15T17:36:01.939Z,11.40
2019-03-15T17:42:04.432Z,11.30
2019-03-15T17:44:51.144Z,11.30
2019-03-15T17:47:39.048Z,11.30
2019-03-15T17:50:23.761Z,11.30
2019-03-15T17:53:12.918Z,11.20
2019-03-15T17:56:13.381Z,11.20
2019-03-15T17:58:48.380Z,11.20
2019-03-15T18:01:33.039Z,11.10
2019-03-15T18:04:39.150Z,11.10
2019-03-15T18:07:15.470Z,11.10
2019-03-15T18:10:00.258Z,11.10
2019-03-15T18:12:43.954Z,11.10
2019-03-15T18:15:31.514Z,11.10
2019-03-15T18:18:17.807Z,11.10
2019-03-15T18:21:01.880Z,11.00
2019-03-15T18:23:45.821Z,11.00
2019-03-15T18:26:29.330Z,11.10
2019-03-15T18:29:25.863Z,11.00
2019-03-15T18:31:59.890Z,11.10
2019-03-15T18:34:46.594Z,11.00
2019-03-15T18:37:30.672Z,11.00
2019-03-15T18:40:15.200Z,11.00
2019-03-15T18:42:57.908Z,11.00
2019-03-15T18:45:41.530Z,11.00
2019-03-15T18:48:29.908Z,11.00
2019-03-15T18:51:16.622Z,11.00
2019-03-15T18:54:01.275Z,11.00
2019-03-15T18:59:39.971Z,11.00
2019-03-15T19:05:02.797Z,11.00
2019-03-15T19:07:46.639Z,11.00
2019-03-15T19:10:30.285Z,11.00
2019-03-15T19:19:19.282Z,10.90
2019-03-15T19:22:03.379Z,11.00
2019-03-15T19:24:57.613Z,11.00
2019-03-15T19:27:44.141Z,10.90
2019-03-15T19:30:28.585Z,11.00
2019-03-15T19:36:27.779Z,10.90
2019-03-15T19:39:10.819Z,10.90
2019-03-15T19:41:55.966Z,10.90
2019-03-15T19:44:43.022Z,10.90
2019-03-15T19:50:28.732Z,10.90
2019-03-15T19:53:02.342Z,10.90
2019-03-15T19:55:50.674Z,10.90
2019-03-15T19:58:36.898Z,10.90
2019-03-15T20:01:40.798Z,10.90
2019-03-15T20:09:51.186Z,10.90
2019-03-15T20:12:35.146Z,10.80
2019-03-15T20:15:19.310Z,10.80
2019-03-15T20:21:10.254Z,10.70
2019-03-15T20:23:39.407Z,10.70
2019-03-15T20:29:10.788Z,10.60
2019-03-15T20:34:38.061Z,10.60
2019-03-15T20:37:21.868Z,10.60
2019-03-15T20:46:00.867Z,10.60
2019-03-15T20:51:54.391Z,10.50
2019-03-15T20:54:39.159Z,10.50
2019-03-15T21:00:12.439Z,10.50
2019-03-15T21:05:39.679Z,10.50
2019-03-15T21:08:30.109Z,10.50
2019-03-15T21:11:16.125Z,10.50
2019-03-15T21:13:59.661Z,10.50
2019-03-15T21:16:51.059Z,10.40
2019-03-15T21:19:37.776Z,10.50
2019-03-15T21:22:23.254Z,10.40
2019-03-15T21:25:09.334Z,10.40
2019-03-15T21:27:54.642Z,10.40
2019-03-15T21:30:48.418Z,10.40
2019-03-15T21:33:49.570Z,10.40
2019-03-15T21:36:22.079Z,10.30
2019-03-15T21:39:07.195Z,10.30
2019-03-15T21:41:51.858Z,10.30
2019-03-15T21:44:37.877Z,10.30
2019-03-15T21:47:41.474Z,10.30
2019-03-15T21:50:33.291Z,10.30
2019-03-15T21:53:11.014Z,10.30
2019-03-15T21:55:54.442Z,10.30
2019-03-15T21:58:37.850Z,10.30
2019-03-15T22:04:07.177Z,10.20
2019-03-15T22:19:09.126Z,10.20
2019-03-15T22:25:02.222Z,10.20
2019-03-15T22:30:14.930Z,10.20
2019-03-15T22:32:57.355Z,10.20
2019-03-15T22:47:01.551Z,10.20
2019-03-15T22:49:46.217Z,10.20
2019-03-15T22:52:29.146Z,10.20
2019-03-15T23:01:30.429Z,10.30
2019-03-15T23:04:14.118Z,10.10
2019-03-15T23:06:58.417Z,10.10
2019-03-15T23:12:33.078Z,10.10
2019-03-15T23:18:04.848Z,10.00
2019-03-15T23:20:49.033Z,10.00
2019-03-15T23:23:35.405Z,9.90
2019-03-15T23:26:20.064Z,9.90
2019-03-15T23:29:03.874Z,9.80
2019-03-15T23:31:48.504Z,9.90
2019-03-15T23:34:35.696Z,9.80
2019-03-15T23:37:22.810Z,9.80
2019-03-15T23:42:53.850Z,9.70
2019-03-15T23:48:27.193Z,9.70
2019-03-15T23:59:46.115Z,9.70
